sensor_id;sensor_type;location;lat;lon;timestamp;P1;durP1;ratioP1;P2;durP2;ratioP2
76459;SDS011;65299;46.084;18.762;2022-11-18T00:01:23;6.03;;;3.13;;
76459;SDS011;65299;46.084;18.762;2022-11-18T00:04:24;7.88;;;3.08;;
76459;SDS011;65299;46.084;18.762;2022-11-18T00:07:25;5.20;;;2.70;;
76459;SDS011;65299;46.084;18.762;2022-11-18T00:10:25;7.18;;;3.60;;
76459;SDS011;65299;46.084;18.762;2022-11-18T00:13:26;5.63;;;2.80;;
76459;SDS011;65299;46.084;18.762;2022-11-18T00:19:46;5.45;;;2.85;;
76459;SDS011;65299;46.084;18.762;2022-11-18T00:22:47;5.50;;;2.83;;
76459;SDS011;65299;46.084;18.762;2022-11-18T00:25:47;5.83;;;3.20;;
76459;SDS011;65299;46.084;18.762;2022-11-18T00:28:47;5.53;;;3.20;;
76459;SDS011;65299;46.084;18.762;2022-11-18T00:31:48;5.03;;;2.63;;
76459;SDS011;65299;46.084;18.762;2022-11-18T00:34:48;4.67;;;2.77;;
76459;SDS011;65299;46.084;18.762;2022-11-18T00:37:49;6.07;;;3.20;;
76459;SDS011;65299;46.084;18.762;2022-11-18T00:40:57;4.43;;;2.90;;
76459;SDS011;65299;46.084;18.762;2022-11-18T00:44:02;4.77;;;3.10;;
76459;SDS011;65299;46.084;18.762;2022-11-18T00:47:02;5.57;;;3.08;;
76459;SDS011;65299;46.084;18.762;2022-11-18T00:50:03;7.10;;;3.23;;
76459;SDS011;65299;46.084;18.762;2022-11-18T00:53:03;4.43;;;2.75;;
76459;SDS011;65299;46.084;18.762;2022-11-18T00:56:04;4.73;;;2.70;;
76459;SDS011;65299;46.084;18.762;2022-11-18T00:59:04;5.13;;;2.90;;
76459;SDS011;65299;46.084;18.762;2022-11-18T01:02:05;4.95;;;3.08;;
76459;SDS011;65299;46.084;18.762;2022-11-18T01:05:05;4.77;;;2.77;;
76459;SDS011;65299;46.084;18.762;2022-11-18T01:08:07;4.03;;;2.60;;
76459;SDS011;65299;46.084;18.762;2022-11-18T01:11:08;4.38;;;2.78;;
76459;SDS011;65299;46.084;18.762;2022-11-18T01:14:27;6.68;;;2.80;;
76459;SDS011;65299;46.084;18.762;2022-11-18T01:17:28;5.77;;;2.70;;
76459;SDS011;65299;46.084;18.762;2022-11-18T01:20:31;6.28;;;3.00;;
76459;SDS011;65299;46.084;18.762;2022-11-18T01:23:32;5.20;;;2.80;;
76459;SDS011;65299;46.084;18.762;2022-11-18T01:26:32;6.17;;;2.87;;
76459;SDS011;65299;46.084;18.762;2022-11-18T01:29:33;4.88;;;2.67;;
76459;SDS011;65299;46.084;18.762;2022-11-18T01:32:33;4.60;;;2.80;;
76459;SDS011;65299;46.084;18.762;2022-11-18T01:35:37;4.73;;;2.73;;
76459;SDS011;65299;46.084;18.762;2022-11-18T01:38:39;5.22;;;2.85;;
76459;SDS011;65299;46.084;18.762;2022-11-18T01:41:40;9.27;;;2.90;;
76459;SDS011;65299;46.084;18.762;2022-11-18T01:44:57;4.97;;;2.60;;
76459;SDS011;65299;46.084;18.762;2022-11-18T01:51:08;5.20;;;2.67;;
76459;SDS011;65299;46.084;18.762;2022-11-18T01:54:13;7.30;;;2.80;;
76459;SDS011;65299;46.084;18.762;2022-11-18T01:57:18;6.68;;;2.85;;
76459;SDS011;65299;46.084;18.762;2022-11-18T02:00:21;4.37;;;2.83;;
76459;SDS011;65299;46.084;18.762;2022-11-18T02:03:22;4.07;;;2.70;;
76459;SDS011;65299;46.084;18.762;2022-11-18T02:06:24;6.13;;;3.17;;
76459;SDS011;65299;46.084;18.762;2022-11-18T02:09:24;4.53;;;2.80;;
76459;SDS011;65299;46.084;18.762;2022-11-18T02:12:25;4.60;;;2.90;;
76459;SDS011;65299;46.084;18.762;2022-11-18T02:15:33;6.20;;;3.03;;
76459;SDS011;65299;46.084;18.762;2022-11-18T02:18:41;6.25;;;2.75;;
76459;SDS011;65299;46.084;18.762;2022-11-18T02:21:59;4.45;;;2.80;;
76459;SDS011;65299;46.084;18.762;2022-11-18T02:32:05;4.40;;;2.93;;
76459;SDS011;65299;46.084;18.762;2022-11-18T02:35:31;4.95;;;2.58;;
76459;SDS011;65299;46.084;18.762;2022-11-18T02:38:43;4.65;;;3.05;;
76459;SDS011;65299;46.084;18.762;2022-11-18T02:41:48;4.50;;;2.83;;
76459;SDS011;65299;46.084;18.762;2022-11-18T02:44:53;3.90;;;2.70;;
76459;SDS011;65299;46.084;18.762;2022-11-18T02:48:01;5.03;;;2.60;;
76459;SDS011;65299;46.084;18.762;2022-11-18T02:51:06;3.80;;;2.20;;
76459;SDS011;65299;46.084;18.762;2022-11-18T02:54:09;4.70;;;2.78;;
76459;SDS011;65299;46.084;18.762;2022-11-18T02:57:12;3.72;;;2.50;;
76459;SDS011;65299;46.084;18.762;2022-11-18T03:00:14;4.43;;;2.63;;
76459;SDS011;65299;46.084;18.762;2022-11-18T03:06:38;5.47;;;2.83;;
76459;SDS011;65299;46.084;18.762;2022-11-18T03:09:42;4.72;;;2.60;;
76459;SDS011;65299;46.084;18.762;2022-11-18T03:12:53;4.20;;;2.50;;
76459;SDS011;65299;46.084;18.762;2022-11-18T03:16:14;4.13;;;2.58;;
76459;SDS011;65299;46.084;18.762;2022-11-18T03:19:22;4.60;;;2.80;;
76459;SDS011;65299;46.084;18.762;2022-11-18T03:22:32;3.92;;;2.60;;
76459;SDS011;65299;46.084;18.762;2022-11-18T03:25:44;3.90;;;2.65;;
76459;SDS011;65299;46.084;18.762;2022-11-18T03:28:59;4.75;;;2.42;;
76459;SDS011;65299;46.084;18.762;2022-11-18T03:32:06;3.97;;;2.63;;
76459;SDS011;65299;46.084;18.762;2022-11-18T03:35:13;3.83;;;2.50;;
76459;SDS011;65299;46.084;18.762;2022-11-18T03:38:18;4.30;;;2.40;;
76459;SDS011;65299;46.084;18.762;2022-11-18T03:41:24;3.40;;;2.53;;
76459;SDS011;65299;46.084;18.762;2022-11-18T03:44:29;5.00;;;2.80;;
76459;SDS011;65299;46.084;18.762;2022-11-18T03:47:33;4.32;;;2.90;;
76459;SDS011;65299;46.084;18.762;2022-11-18T03:50:42;5.00;;;3.23;;
76459;SDS011;65299;46.084;18.762;2022-11-18T03:53:51;4.40;;;2.85;;
76459;SDS011;65299;46.084;18.762;2022-11-18T03:56:57;3.85;;;2.40;;
76459;SDS011;65299;46.084;18.762;2022-11-18T04:00:07;5.38;;;2.65;;
76459;SDS011;65299;46.084;18.762;2022-11-18T04:03:09;4.20;;;2.58;;
76459;SDS011;65299;46.084;18.762;2022-11-18T04:06:14;4.03;;;2.70;;
76459;SDS011;65299;46.084;18.762;2022-11-18T04:09:25;3.75;;;2.45;;
76459;SDS011;65299;46.084;18.762;2022-11-18T04:12:34;4.80;;;2.60;;
76459;SDS011;65299;46.084;18.762;2022-11-18T04:15:40;3.85;;;2.50;;
76459;SDS011;65299;46.084;18.762;2022-11-18T04:18:41;4.07;;;2.38;;
76459;SDS011;65299;46.084;18.762;2022-11-18T04:21:41;4.37;;;2.57;;
76459;SDS011;65299;46.084;18.762;2022-11-18T04:24:42;4.43;;;3.07;;
76459;SDS011;65299;46.084;18.762;2022-11-18T04:27:42;4.57;;;2.60;;
76459;SDS011;65299;46.084;18.762;2022-11-18T04:30:43;4.93;;;2.90;;
76459;SDS011;65299;46.084;18.762;2022-11-18T04:33:43;4.13;;;2.65;;
76459;SDS011;65299;46.084;18.762;2022-11-18T04:36:43;4.37;;;3.20;;
76459;SDS011;65299;46.084;18.762;2022-11-18T04:39:44;3.53;;;2.37;;
76459;SDS011;65299;46.084;18.762;2022-11-18T04:42:44;3.77;;;2.60;;
76459;SDS011;65299;46.084;18.762;2022-11-18T04:45:45;4.40;;;2.77;;
76459;SDS011;65299;46.084;18.762;2022-11-18T04:48:45;5.68;;;2.70;;
76459;SDS011;65299;46.084;18.762;2022-11-18T04:51:45;3.67;;;2.60;;
76459;SDS011;65299;46.084;18.762;2022-11-18T04:54:46;4.72;;;2.72;;
76459;SDS011;65299;46.084;18.762;2022-11-18T04:57:47;3.60;;;2.50;;
76459;SDS011;65299;46.084;18.762;2022-11-18T05:00:49;5.43;;;2.50;;
76459;SDS011;65299;46.084;18.762;2022-11-18T05:03:49;3.50;;;2.40;;
76459;SDS011;65299;46.084;18.762;2022-11-18T05:06:50;3.43;;;2.20;;
76459;SDS011;65299;46.084;18.762;2022-11-18T05:09:51;3.63;;;2.70;;
76459;SDS011;65299;46.084;18.762;2022-11-18T05:12:51;4.07;;;2.57;;
76459;SDS011;65299;46.084;18.762;2022-11-18T05:15:51;3.97;;;2.40;;
76459;SDS011;65299;46.084;18.762;2022-11-18T05:18:52;3.67;;;2.60;;
76459;SDS011;65299;46.084;18.762;2022-11-18T05:21:52;4.45;;;2.67;;
76459;SDS011;65299;46.084;18.762;2022-11-18T05:24:53;4.40;;;2.40;;
76459;SDS011;65299;46.084;18.762;2022-11-18T05:27:53;3.60;;;2.70;;
76459;SDS011;65299;46.084;18.762;2022-11-18T05:30:54;3.90;;;2.40;;
76459;SDS011;65299;46.084;18.762;2022-11-18T05:33:54;6.20;;;2.70;;
76459;SDS011;65299;46.084;18.762;2022-11-18T05:36:55;4.77;;;2.80;;
76459;SDS011;65299;46.084;18.762;2022-11-18T05:39:55;3.47;;;2.40;;
76459;SDS011;65299;46.084;18.762;2022-11-18T05:42:55;5.15;;;2.63;;
76459;SDS011;65299;46.084;18.762;2022-11-18T05:46:11;3.80;;;2.60;;
76459;SDS011;65299;46.084;18.762;2022-11-18T05:49:11;6.53;;;3.17;;
76459;SDS011;65299;46.084;18.762;2022-11-18T05:52:12;5.00;;;3.03;;
76459;SDS011;65299;46.084;18.762;2022-11-18T05:55:12;4.87;;;2.83;;
76459;SDS011;65299;46.084;18.762;2022-11-18T05:58:14;6.97;;;3.20;;
76459;SDS011;65299;46.084;18.762;2022-11-18T06:01:15;7.90;;;3.50;;
76459;SDS011;65299;46.084;18.762;2022-11-18T06:04:35;7.35;;;3.40;;
76459;SDS011;65299;46.084;18.762;2022-11-18T06:07:42;6.05;;;3.22;;
76459;SDS011;65299;46.084;18.762;2022-11-18T06:10:44;6.90;;;4.25;;
76459;SDS011;65299;46.084;18.762;2022-11-18T06:14:04;5.37;;;3.80;;
76459;SDS011;65299;46.084;18.762;2022-11-18T06:17:10;6.43;;;4.07;;
76459;SDS011;65299;46.084;18.762;2022-11-18T06:20:16;7.13;;;4.75;;
76459;SDS011;65299;46.084;18.762;2022-11-18T06:23:18;9.70;;;5.28;;
76459;SDS011;65299;46.084;18.762;2022-11-18T06:26:19;7.87;;;5.00;;
76459;SDS011;65299;46.084;18.762;2022-11-18T06:29:19;9.17;;;5.03;;
76459;SDS011;65299;46.084;18.762;2022-11-18T06:32:20;8.77;;;4.90;;
76459;SDS011;65299;46.084;18.762;2022-11-18T06:35:21;8.03;;;5.43;;
76459;SDS011;65299;46.084;18.762;2022-11-18T06:38:24;8.38;;;5.72;;
76459;SDS011;65299;46.084;18.762;2022-11-18T06:41:24;12.40;;;5.53;;
76459;SDS011;65299;46.084;18.762;2022-11-18T06:44:25;10.57;;;5.53;;
76459;SDS011;65299;46.084;18.762;2022-11-18T06:47:25;11.70;;;5.33;;
76459;SDS011;65299;46.084;18.762;2022-11-18T06:50:26;11.13;;;4.77;;
76459;SDS011;65299;46.084;18.762;2022-11-18T06:53:27;10.07;;;5.28;;
76459;SDS011;65299;46.084;18.762;2022-11-18T06:56:27;8.73;;;5.03;;
76459;SDS011;65299;46.084;18.762;2022-11-18T06:59:28;10.63;;;5.20;;
76459;SDS011;65299;46.084;18.762;2022-11-18T07:02:28;10.33;;;5.30;;
76459;SDS011;65299;46.084;18.762;2022-11-18T07:05:28;11.77;;;5.17;;
76459;SDS011;65299;46.084;18.762;2022-11-18T07:08:29;9.63;;;4.53;;
76459;SDS011;65299;46.084;18.762;2022-11-18T07:11:29;6.65;;;4.78;;
76459;SDS011;65299;46.084;18.762;2022-11-18T07:14:30;9.23;;;4.70;;
76459;SDS011;65299;46.084;18.762;2022-11-18T07:17:31;9.40;;;4.88;;
76459;SDS011;65299;46.084;18.762;2022-11-18T07:20:33;9.47;;;4.47;;
76459;SDS011;65299;46.084;18.762;2022-11-18T07:23:33;8.98;;;4.55;;
76459;SDS011;65299;46.084;18.762;2022-11-18T07:26:34;7.55;;;4.60;;
76459;SDS011;65299;46.084;18.762;2022-11-18T07:29:35;8.60;;;4.60;;
76459;SDS011;65299;46.084;18.762;2022-11-18T07:32:35;10.97;;;4.83;;
76459;SDS011;65299;46.084;18.762;2022-11-18T07:35:36;9.32;;;4.25;;
76459;SDS011;65299;46.084;18.762;2022-11-18T07:38:36;10.90;;;4.60;;
76459;SDS011;65299;46.084;18.762;2022-11-18T07:41:38;9.77;;;4.27;;
76459;SDS011;65299;46.084;18.762;2022-11-18T07:44:39;9.05;;;4.28;;
76459;SDS011;65299;46.084;18.762;2022-11-18T07:47:39;11.83;;;4.33;;
76459;SDS011;65299;46.084;18.762;2022-11-18T07:50:39;8.73;;;4.28;;
76459;SDS011;65299;46.084;18.762;2022-11-18T07:53:40;11.30;;;3.93;;
76459;SDS011;65299;46.084;18.762;2022-11-18T07:56:41;13.40;;;5.35;;
76459;SDS011;65299;46.084;18.762;2022-11-18T07:59:42;14.93;;;4.37;;
76459;SDS011;65299;46.084;18.762;2022-11-18T08:02:42;18.70;;;4.95;;
76459;SDS011;65299;46.084;18.762;2022-11-18T08:05:43;14.13;;;4.87;;
76459;SDS011;65299;46.084;18.762;2022-11-18T08:08:43;13.40;;;4.23;;
76459;SDS011;65299;46.084;18.762;2022-11-18T08:11:44;12.55;;;4.10;;
76459;SDS011;65299;46.084;18.762;2022-11-18T08:14:44;14.60;;;4.43;;
76459;SDS011;65299;46.084;18.762;2022-11-18T08:17:45;12.40;;;4.15;;
76459;SDS011;65299;46.084;18.762;2022-11-18T08:20:46;13.27;;;4.53;;
76459;SDS011;65299;46.084;18.762;2022-11-18T08:23:50;12.32;;;4.13;;
76459;SDS011;65299;46.084;18.762;2022-11-18T08:26:52;15.33;;;4.20;;
76459;SDS011;65299;46.084;18.762;2022-11-18T08:29:52;14.00;;;4.05;;
76459;SDS011;65299;46.084;18.762;2022-11-18T08:32:53;13.37;;;3.50;;
76459;SDS011;65299;46.084;18.762;2022-11-18T08:35:54;10.27;;;3.80;;
76459;SDS011;65299;46.084;18.762;2022-11-18T08:38:55;13.23;;;3.83;;
76459;SDS011;65299;46.084;18.762;2022-11-18T08:41:58;12.20;;;4.28;;
76459;SDS011;65299;46.084;18.762;2022-11-18T08:44:59;21.17;;;4.50;;
76459;SDS011;65299;46.084;18.762;2022-11-18T08:47:59;11.20;;;4.00;;
76459;SDS011;65299;46.084;18.762;2022-11-18T08:51:01;16.63;;;4.13;;
76459;SDS011;65299;46.084;18.762;2022-11-18T08:54:03;13.55;;;4.65;;
76459;SDS011;65299;46.084;18.762;2022-11-18T08:57:03;21.88;;;4.55;;
76459;SDS011;65299;46.084;18.762;2022-11-18T09:00:04;20.00;;;4.80;;
76459;SDS011;65299;46.084;18.762;2022-11-18T09:03:05;11.27;;;4.25;;
76459;SDS011;65299;46.084;18.762;2022-11-18T09:06:39;19.20;;;4.33;;
76459;SDS011;65299;46.084;18.762;2022-11-18T09:09:33;20.33;;;4.88;;
76459;SDS011;65299;46.084;18.762;2022-11-18T09:12:34;15.10;;;4.93;;
76459;SDS011;65299;46.084;18.762;2022-11-18T09:15:34;18.27;;;4.70;;
76459;SDS011;65299;46.084;18.762;2022-11-18T09:18:35;20.63;;;5.00;;
76459;SDS011;65299;46.084;18.762;2022-11-18T09:21:36;19.08;;;5.43;;
76459;SDS011;65299;46.084;18.762;2022-11-18T09:24:36;11.50;;;4.60;;
76459;SDS011;65299;46.084;18.762;2022-11-18T09:27:37;14.73;;;4.90;;
76459;SDS011;65299;46.084;18.762;2022-11-18T09:30:37;17.60;;;5.07;;
76459;SDS011;65299;46.084;18.762;2022-11-18T09:33:38;19.67;;;5.13;;
76459;SDS011;65299;46.084;18.762;2022-11-18T09:36:39;22.93;;;5.10;;
76459;SDS011;65299;46.084;18.762;2022-11-18T09:39:39;14.00;;;4.57;;
76459;SDS011;65299;46.084;18.762;2022-11-18T09:42:45;16.67;;;4.77;;
76459;SDS011;65299;46.084;18.762;2022-11-18T09:45:55;15.05;;;4.35;;
76459;SDS011;65299;46.084;18.762;2022-11-18T09:49:06;16.77;;;4.30;;
76459;SDS011;65299;46.084;18.762;2022-11-18T09:55:30;33.30;;;5.80;;
76459;SDS011;65299;46.084;18.762;2022-11-18T09:58:38;21.23;;;4.90;;
76459;SDS011;65299;46.084;18.762;2022-11-18T10:01:39;20.37;;;5.27;;
76459;SDS011;65299;46.084;18.762;2022-11-18T10:04:40;16.45;;;4.53;;
76459;SDS011;65299;46.084;18.762;2022-11-18T10:07:42;18.20;;;5.00;;
76459;SDS011;65299;46.084;18.762;2022-11-18T10:11:00;18.80;;;5.10;;
76459;SDS011;65299;46.084;18.762;2022-11-18T10:17:39;28.70;;;5.15;;
76459;SDS011;65299;46.084;18.762;2022-11-18T10:20:51;19.47;;;5.00;;
76459;SDS011;65299;46.084;18.762;2022-11-18T10:24:00;24.13;;;5.20;;
76459;SDS011;65299;46.084;18.762;2022-11-18T10:27:10;17.83;;;5.07;;
76459;SDS011;65299;46.084;18.762;2022-11-18T10:30:14;19.33;;;4.47;;
76459;SDS011;65299;46.084;18.762;2022-11-18T10:36:27;26.40;;;5.27;;
76459;SDS011;65299;46.084;18.762;2022-11-18T10:39:33;21.95;;;5.03;;
76459;SDS011;65299;46.084;18.762;2022-11-18T10:42:50;24.23;;;5.40;;
76459;SDS011;65299;46.084;18.762;2022-11-18T10:45:50;19.10;;;5.23;;
76459;SDS011;65299;46.084;18.762;2022-11-18T10:49:13;24.77;;;5.60;;
76459;SDS011;65299;46.084;18.762;2022-11-18T10:52:16;21.05;;;5.47;;
76459;SDS011;65299;46.084;18.762;2022-11-18T10:55:18;15.27;;;4.87;;
76459;SDS011;65299;46.084;18.762;2022-11-18T10:58:20;23.15;;;5.50;;
76459;SDS011;65299;46.084;18.762;2022-11-18T11:01:22;15.73;;;5.40;;
76459;SDS011;65299;46.084;18.762;2022-11-18T11:04:24;16.73;;;4.63;;
76459;SDS011;65299;46.084;18.762;2022-11-18T11:07:27;17.27;;;4.75;;
76459;SDS011;65299;46.084;18.762;2022-11-18T11:10:28;13.35;;;4.45;;
76459;SDS011;65299;46.084;18.762;2022-11-18T11:13:29;14.87;;;4.60;;
76459;SDS011;65299;46.084;18.762;2022-11-18T11:16:32;18.42;;;4.57;;
76459;SDS011;65299;46.084;18.762;2022-11-18T11:19:50;18.85;;;4.65;;
76459;SDS011;65299;46.084;18.762;2022-11-18T11:22:51;15.87;;;4.90;;
76459;SDS011;65299;46.084;18.762;2022-11-18T11:25:55;22.75;;;4.25;;
76459;SDS011;65299;46.084;18.762;2022-11-18T11:32:32;25.23;;;5.40;;
76459;SDS011;65299;46.084;18.762;2022-11-18T11:38:49;18.77;;;4.20;;
76459;SDS011;65299;46.084;18.762;2022-11-18T11:42:02;24.48;;;4.60;;
76459;SDS011;65299;46.084;18.762;2022-11-18T11:45:24;16.43;;;4.40;;
76459;SDS011;65299;46.084;18.762;2022-11-18T11:51:30;19.20;;;4.83;;
76459;SDS011;65299;46.084;18.762;2022-11-18T11:54:42;14.88;;;4.82;;
76459;SDS011;65299;46.084;18.762;2022-11-18T12:07:30;18.70;;;5.13;;
76459;SDS011;65299;46.084;18.762;2022-11-18T12:23:42;13.98;;;4.40;;
76459;SDS011;65299;46.084;18.762;2022-11-18T12:30:29;23.80;;;5.45;;
76459;SDS011;65299;46.084;18.762;2022-11-18T12:33:29;14.47;;;4.73;;
76459;SDS011;65299;46.084;18.762;2022-11-18T12:36:34;16.77;;;4.97;;
76459;SDS011;65299;46.084;18.762;2022-11-18T12:39:45;9.25;;;4.65;;
76459;SDS011;65299;46.084;18.762;2022-11-18T12:42:47;22.58;;;5.63;;
76459;SDS011;65299;46.084;18.762;2022-11-18T12:46:06;21.60;;;5.43;;
76459;SDS011;65299;46.084;18.762;2022-11-18T12:55:34;25.63;;;7.57;;
76459;SDS011;65299;46.084;18.762;2022-11-18T12:58:37;23.30;;;7.10;;
76459;SDS011;65299;46.084;18.762;2022-11-18T13:01:43;24.70;;;7.30;;
76459;SDS011;65299;46.084;18.762;2022-11-18T13:04:44;22.97;;;6.73;;
76459;SDS011;65299;46.084;18.762;2022-11-18T13:11:16;24.33;;;6.63;;
76459;SDS011;65299;46.084;18.762;2022-11-18T13:14:40;23.40;;;6.53;;
76459;SDS011;65299;46.084;18.762;2022-11-18T13:18:04;22.70;;;6.75;;
76459;SDS011;65299;46.084;18.762;2022-11-18T13:21:10;25.00;;;6.90;;
76459;SDS011;65299;46.084;18.762;2022-11-18T13:24:29;23.40;;;7.07;;
76459;SDS011;65299;46.084;18.762;2022-11-18T13:34:47;22.17;;;6.50;;
76459;SDS011;65299;46.084;18.762;2022-11-18T13:37:53;21.80;;;7.57;;
76459;SDS011;65299;46.084;18.762;2022-11-18T13:40:54;26.75;;;7.25;;
76459;SDS011;65299;46.084;18.762;2022-11-18T13:47:28;23.58;;;7.22;;
76459;SDS011;65299;46.084;18.762;2022-11-18T13:50:39;25.47;;;7.30;;
76459;SDS011;65299;46.084;18.762;2022-11-18T13:53:50;23.50;;;7.47;;
76459;SDS011;65299;46.084;18.762;2022-11-18T13:56:50;28.37;;;8.13;;
76459;SDS011;65299;46.084;18.762;2022-11-18T13:59:51;27.52;;;8.25;;
76459;SDS011;65299;46.084;18.762;2022-11-18T14:02:55;33.30;;;7.45;;
76459;SDS011;65299;46.084;18.762;2022-11-18T14:05:59;24.60;;;7.22;;
76459;SDS011;65299;46.084;18.762;2022-11-18T14:09:05;28.95;;;7.40;;
76459;SDS011;65299;46.084;18.762;2022-11-18T14:15:12;19.38;;;7.35;;
76459;SDS011;65299;46.084;18.762;2022-11-18T14:18:16;22.00;;;6.82;;
76459;SDS011;65299;46.084;18.762;2022-11-18T14:21:32;23.83;;;7.13;;
76459;SDS011;65299;46.084;18.762;2022-11-18T14:24:34;24.13;;;7.22;;
76459;SDS011;65299;46.084;18.762;2022-11-18T14:27:42;21.37;;;7.13;;
76459;SDS011;65299;46.084;18.762;2022-11-18T14:30:57;22.80;;;6.97;;
76459;SDS011;65299;46.084;18.762;2022-11-18T14:37:26;18.77;;;6.25;;
76459;SDS011;65299;46.084;18.762;2022-11-18T14:40:27;28.35;;;7.65;;
76459;SDS011;65299;46.084;18.762;2022-11-18T14:43:27;22.53;;;7.13;;
76459;SDS011;65299;46.084;18.762;2022-11-18T14:46:28;26.27;;;6.85;;
76459;SDS011;65299;46.084;18.762;2022-11-18T14:49:29;29.05;;;6.55;;
76459;SDS011;65299;46.084;18.762;2022-11-18T14:52:30;20.63;;;6.75;;
76459;SDS011;65299;46.084;18.762;2022-11-18T14:55:31;24.03;;;7.03;;
76459;SDS011;65299;46.084;18.762;2022-11-18T14:58:31;20.83;;;6.77;;
76459;SDS011;65299;46.084;18.762;2022-11-18T15:01:32;22.60;;;6.97;;
76459;SDS011;65299;46.084;18.762;2022-11-18T15:04:33;21.77;;;6.27;;
76459;SDS011;65299;46.084;18.762;2022-11-18T15:07:33;18.50;;;6.07;;
76459;SDS011;65299;46.084;18.762;2022-11-18T15:10:34;22.95;;;6.20;;
76459;SDS011;65299;46.084;18.762;2022-11-18T15:13:34;20.43;;;5.77;;
76459;SDS011;65299;46.084;18.762;2022-11-18T15:16:35;17.63;;;5.93;;
76459;SDS011;65299;46.084;18.762;2022-11-18T15:19:36;19.53;;;6.00;;
76459;SDS011;65299;46.084;18.762;2022-11-18T15:22:37;19.30;;;6.40;;
76459;SDS011;65299;46.084;18.762;2022-11-18T15:25:37;21.57;;;6.53;;
76459;SDS011;65299;46.084;18.762;2022-11-18T15:28:38;51.42;;;8.20;;
76459;SDS011;65299;46.084;18.762;2022-11-18T15:31:38;73.87;;;8.97;;
76459;SDS011;65299;46.084;18.762;2022-11-18T15:34:38;52.60;;;9.07;;
76459;SDS011;65299;46.084;18.762;2022-11-18T15:37:39;33.47;;;7.00;;
76459;SDS011;65299;46.084;18.762;2022-11-18T15:40:40;37.67;;;6.78;;
76459;SDS011;65299;46.084;18.762;2022-11-18T15:43:40;37.30;;;6.90;;
76459;SDS011;65299;46.084;18.762;2022-11-18T15:46:41;37.13;;;6.83;;
76459;SDS011;65299;46.084;18.762;2022-11-18T15:49:41;39.30;;;7.20;;
76459;SDS011;65299;46.084;18.762;2022-11-18T15:52:44;39.30;;;7.07;;
76459;SDS011;65299;46.084;18.762;2022-11-18T15:55:44;36.73;;;7.10;;
76459;SDS011;65299;46.084;18.762;2022-11-18T15:58:50;31.20;;;7.10;;
76459;SDS011;65299;46.084;18.762;2022-11-18T16:01:53;39.63;;;6.63;;
76459;SDS011;65299;46.084;18.762;2022-11-18T16:04:55;38.90;;;7.03;;
76459;SDS011;65299;46.084;18.762;2022-11-18T16:07:55;32.37;;;6.43;;
76459;SDS011;65299;46.084;18.762;2022-11-18T16:10:55;35.73;;;6.70;;
76459;SDS011;65299;46.084;18.762;2022-11-18T16:14:16;30.88;;;6.55;;
76459;SDS011;65299;46.084;18.762;2022-11-18T16:17:18;31.35;;;6.63;;
76459;SDS011;65299;46.084;18.762;2022-11-18T16:20:18;27.00;;;6.27;;
76459;SDS011;65299;46.084;18.762;2022-11-18T16:23:19;28.93;;;6.40;;
76459;SDS011;65299;46.084;18.762;2022-11-18T16:26:19;26.90;;;6.70;;
76459;SDS011;65299;46.084;18.762;2022-11-18T16:29:19;24.10;;;6.20;;
76459;SDS011;65299;46.084;18.762;2022-11-18T16:32:20;24.67;;;6.37;;
76459;SDS011;65299;46.084;18.762;2022-11-18T16:35:20;30.70;;;6.47;;
76459;SDS011;65299;46.084;18.762;2022-11-18T16:38:21;25.63;;;6.93;;
76459;SDS011;65299;46.084;18.762;2022-11-18T16:41:21;25.00;;;6.07;;
76459;SDS011;65299;46.084;18.762;2022-11-18T16:44:31;19.65;;;6.10;;
76459;SDS011;65299;46.084;18.762;2022-11-18T16:47:31;18.83;;;5.10;;
76459;SDS011;65299;46.084;18.762;2022-11-18T16:50:31;23.50;;;5.57;;
76459;SDS011;65299;46.084;18.762;2022-11-18T16:53:32;18.87;;;5.47;;
76459;SDS011;65299;46.084;18.762;2022-11-18T16:56:33;22.73;;;5.93;;
76459;SDS011;65299;46.084;18.762;2022-11-18T16:59:34;25.20;;;6.05;;
76459;SDS011;65299;46.084;18.762;2022-11-18T17:02:34;23.93;;;6.00;;
76459;SDS011;65299;46.084;18.762;2022-11-18T17:05:35;22.13;;;5.45;;
76459;SDS011;65299;46.084;18.762;2022-11-18T17:08:35;21.50;;;5.70;;
76459;SDS011;65299;46.084;18.762;2022-11-18T17:11:36;19.80;;;5.37;;
76459;SDS011;65299;46.084;18.762;2022-11-18T17:14:36;20.03;;;6.03;;
76459;SDS011;65299;46.084;18.762;2022-11-18T17:17:38;22.17;;;6.07;;
76459;SDS011;65299;46.084;18.762;2022-11-18T17:20:39;24.13;;;5.50;;
76459;SDS011;65299;46.084;18.762;2022-11-18T17:23:39;19.58;;;5.63;;
76459;SDS011;65299;46.084;18.762;2022-11-18T17:26:40;21.27;;;5.47;;
76459;SDS011;65299;46.084;18.762;2022-11-18T17:29:41;20.05;;;5.35;;
76459;SDS011;65299;46.084;18.762;2022-11-18T17:32:41;17.30;;;5.53;;
76459;SDS011;65299;46.084;18.762;2022-11-18T17:35:42;20.00;;;5.43;;
76459;SDS011;65299;46.084;18.762;2022-11-18T17:38:43;18.27;;;5.32;;
76459;SDS011;65299;46.084;18.762;2022-11-18T17:41:45;24.00;;;5.07;;
76459;SDS011;65299;46.084;18.762;2022-11-18T17:45:04;17.27;;;5.15;;
76459;SDS011;65299;46.084;18.762;2022-11-18T17:48:05;16.10;;;5.38;;
76459;SDS011;65299;46.084;18.762;2022-11-18T17:51:05;18.23;;;5.53;;
76459;SDS011;65299;46.084;18.762;2022-11-18T17:54:06;15.97;;;5.20;;
76459;SDS011;65299;46.084;18.762;2022-11-18T17:57:08;17.90;;;5.15;;
76459;SDS011;65299;46.084;18.762;2022-11-18T18:00:08;19.03;;;5.63;;
76459;SDS011;65299;46.084;18.762;2022-11-18T18:03:09;20.15;;;5.78;;
76459;SDS011;65299;46.084;18.762;2022-11-18T18:06:10;16.53;;;5.67;;
76459;SDS011;65299;46.084;18.762;2022-11-18T18:09:12;14.85;;;5.18;;
76459;SDS011;65299;46.084;18.762;2022-11-18T18:12:12;15.57;;;5.33;;
76459;SDS011;65299;46.084;18.762;2022-11-18T18:15:31;17.00;;;5.10;;
76459;SDS011;65299;46.084;18.762;2022-11-18T18:18:31;15.20;;;5.30;;
76459;SDS011;65299;46.084;18.762;2022-11-18T18:21:32;15.93;;;5.20;;
76459;SDS011;65299;46.084;18.762;2022-11-18T18:24:33;12.50;;;5.20;;
76459;SDS011;65299;46.084;18.762;2022-11-18T18:27:33;14.40;;;5.13;;
76459;SDS011;65299;46.084;18.762;2022-11-18T18:30:34;14.70;;;4.70;;
76459;SDS011;65299;46.084;18.762;2022-11-18T18:33:34;12.03;;;4.90;;
76459;SDS011;65299;46.084;18.762;2022-11-18T18:36:35;16.20;;;5.40;;
76459;SDS011;65299;46.084;18.762;2022-11-18T18:39:36;17.60;;;5.20;;
76459;SDS011;65299;46.084;18.762;2022-11-18T18:42:37;14.23;;;4.70;;
76459;SDS011;65299;46.084;18.762;2022-11-18T18:45:37;13.27;;;5.37;;
76459;SDS011;65299;46.084;18.762;2022-11-18T18:49:15;9.70;;;4.22;;
76459;SDS011;65299;46.084;18.762;2022-11-18T18:52:19;11.43;;;4.97;;
76459;SDS011;65299;46.084;18.762;2022-11-18T18:55:19;14.07;;;4.33;;
76459;SDS011;65299;46.084;18.762;2022-11-18T18:58:20;17.03;;;5.10;;
76459;SDS011;65299;46.084;18.762;2022-11-18T19:01:20;16.25;;;4.90;;
76459;SDS011;65299;46.084;18.762;2022-11-18T19:04:21;16.33;;;4.97;;
76459;SDS011;65299;46.084;18.762;2022-11-18T19:07:21;15.03;;;4.77;;
76459;SDS011;65299;46.084;18.762;2022-11-18T19:10:21;11.80;;;4.95;;
76459;SDS011;65299;46.084;18.762;2022-11-18T19:13:22;17.07;;;4.60;;
76459;SDS011;65299;46.084;18.762;2022-11-18T19:16:22;14.00;;;4.40;;
76459;SDS011;65299;46.084;18.762;2022-11-18T19:19:24;14.30;;;5.03;;
76459;SDS011;65299;46.084;18.762;2022-11-18T19:22:45;13.38;;;4.28;;
76459;SDS011;65299;46.084;18.762;2022-11-18T19:25:45;14.00;;;5.20;;
76459;SDS011;65299;46.084;18.762;2022-11-18T19:28:45;9.47;;;4.53;;